Time;durP1;ratioP1;P1;durP2;ratioP2;P2;SDS_P1;SDS_P2;PMS_P1;PMS_P2;Temp;Humidity;BMP_temperature;BMP_pressure;BME280_temperature;BME280_humidity;BME280_pressure;Samples;Min_cycle;Max_cycle;Signal;HPM_P1;HPM_P2
2023/03/02 00:02:17;;;;;;;43.28;31.98;;;;;;;2.95;50.99;99465.03;5106331;28;20085;-74
2023/03/02 00:04:48;;;;;;;40.33;28.83;;;;;;;4.22;51.14;99670.00;5106247;28;20077;-75
2023/03/02 00:07:20;;;;;;;40.78;30.70;;;;;;;4.56;51.03;99727.75;5106285;28;20275;-75
2023/03/02 00:09:47;;;;;;;42.63;30.77;;;;;;;4.55;51.09;99720.78;5107341;28;20067;-75
2023/03/02 00:12:15;;;;;;;43.53;31.05;;;;;;;4.54;50.98;99712.06;5107253;28;20040;-75
2023/03/02 00:14:43;;;;;;;43.28;30.75;;;;;;;4.55;51.06;99708.53;5106348;28;20113;-75
2023/03/02 00:17:10;;;;;;;40.28;31.15;;;;;;;4.55;51.00;99710.28;5107458;28;20047;-74
2023/03/02 00:19:37;;;;;;;42.58;32.20;;;;;;;4.55;51.13;99710.28;5106997;28;20043;-75
2023/03/02 00:22:04;;;;;;;41.88;32.72;;;;;;;4.54;50.92;99704.19;5105935;28;20119;-75
2023/03/02 00:24:31;;;;;;;44.65;31.92;;;;;;;4.55;50.96;99697.16;5107275;28;20055;-75
2023/03/02 00:26:58;;;;;;;44.90;31.15;;;;;;;4.00;51.00;99607.53;5105940;28;20036;-74
2023/03/02 00:29:25;;;;;;;43.63;32.67;;;;;;;4.60;51.08;99708.41;5105892;28;20032;-75
2023/03/02 00:31:54;;;;;;;45.03;32.53;;;;;;;4.58;51.15;99720.72;5105793;28;20068;-75
2023/03/02 00:34:21;;;;;;;43.22;30.10;;;;;;;4.58;50.97;99703.19;5105672;28;20111;-74
2023/03/02 00:36:49;;;;;;;50.35;31.98;;;;;;;4.59;50.97;99701.44;5106536;28;20043;-76
2023/03/02 00:39:18;;;;;;;44.05;31.80;;;;;;;4.37;51.07;99664.38;5106681;28;20048;-75
2023/03/02 00:41:48;;;;;;;46.08;32.83;;;;;;;4.38;50.99;99655.59;5089037;28;20054;-75
2023/03/02 00:44:16;;;;;;;47.88;33.13;;;;;;;4.56;51.00;99685.78;5107035;28;20055;-75
2023/03/02 00:46:43;;;;;;;48.45;31.05;;;;;;;3.67;50.94;99545.44;5106374;28;20234;-75
2023/03/02 00:49:13;;;;;;;45.63;34.17;;;;;;;4.40;51.09;99659.03;5105760;28;20040;-74
2023/03/02 00:51:42;;;;;;;43.40;33.08;;;;;;;4.39;51.35;99646.81;5105617;28;20086;-75
2023/03/02 00:54:10;;;;;;;48.38;34.17;;;;;;;4.35;51.08;99647.81;5106288;28;20056;-75
2023/03/02 00:56:38;;;;;;;48.72;33.50;;;;;;;4.55;51.12;99682.28;5106528;28;20243;-76
2023/03/02 00:59:05;;;;;;;44.50;31.52;;;;;;;4.54;51.14;99682.31;5106816;28;20067;-75
2023/03/02 01:01:32;;;;;;;48.83;31.35;;;;;;;3.07;51.10;99451.69;5105336;28;20041;-76
2023/03/02 01:03:59;;;;;;;45.35;33.53;;;;;;;4.54;51.31;99677.06;5106057;28;20050;-75
2023/03/02 01:06:27;;;;;;;46.97;34.33;;;;;;;4.54;51.21;99672.69;5105511;28;20200;-75
2023/03/02 01:08:55;;;;;;;43.22;31.35;;;;;;;4.57;51.19;99666.50;5105269;28;20042;-75
2023/03/02 01:11:22;;;;;;;43.97;30.88;;;;;;;4.54;51.13;99667.44;5106521;28;20054;-75
2023/03/02 01:13:53;;;;;;;46.28;33.60;;;;;;;4.31;50.97;99617.28;5106288;28;20040;-75
2023/03/02 01:16:20;;;;;;;43.53;30.48;;;;;;;4.52;50.92;99658.72;5105374;28;20036;-74
2023/03/02 01:18:47;;;;;;;42.30;31.00;;;;;;;3.90;51.08;99566.72;5105979;28;20104;-75
2023/03/02 01:21:15;;;;;;;44.47;33.83;;;;;;;4.53;51.07;99651.72;5105942;28;20051;-74
2023/03/02 01:23:44;;;;;;;40.75;30.75;;;;;;;4.13;51.17;99624.69;5106315;28;20040;-75
2023/03/02 01:26:11;;;;;;;42.67;31.92;;;;;;;4.08;51.15;99584.59;5106201;28;20044;-75
2023/03/02 01:28:38;;;;;;;46.20;32.42;;;;;;;4.42;51.33;99644.13;5104904;28;20039;-75
2023/03/02 01:31:05;;;;;;;45.20;31.63;;;;;;;4.42;51.27;99646.75;5105022;28;20032;-75
2023/03/02 01:33:32;;;;;;;45.08;32.85;;;;;;;4.04;51.06;99589.97;5105936;28;20349;-75
2023/03/02 01:35:59;;;;;;;46.50;33.88;;;;;;;4.43;51.17;99640.59;5088316;28;20071;-75
2023/03/02 01:38:26;;;;;;;43.30;33.65;;;;;;;4.43;51.22;99637.97;5106530;28;20035;-76
2023/03/02 01:40:54;;;;;;;44.28;30.83;;;;;;;4.39;51.21;99634.56;5107100;28;20048;-76
2023/03/02 01:43:21;;;;;;;42.92;32.28;;;;;;;4.40;51.28;99636.28;5106014;28;20047;-76
2023/03/02 01:45:53;;;;;;;45.00;32.88;;;;;;;3.75;51.30;99519.91;5105761;28;20038;-76
2023/03/02 01:48:27;;;;;;;40.80;31.48;;;;;;;3.39;51.25;99467.50;5105383;28;20040;-75
2023/03/02 01:50:54;;;;;;;41.03;32.30;;;;;;;4.20;51.24;99608.81;5106767;28;20086;-75
2023/03/02 01:53:25;;;;;;;41.22;31.30;;;;;;;3.91;51.21;99557.94;5106165;28;20064;-75
2023/03/02 01:55:54;;;;;;;46.20;32.47;;;;;;;4.39;51.34;99637.19;5104929;28;20044;-75
2023/03/02 01:58:21;;;;;;;39.42;30.13;;;;;;;3.52;51.14;99481.16;5106010;28;20054;-75
2023/03/02 02:00:48;;;;;;;43.35;31.48;;;;;;;4.31;51.10;99612.91;5104713;28;20032;-74
2023/03/02 02:03:20;;;;;;;42.60;31.17;;;;;;;4.42;51.16;99649.38;5105787;28;20052;-74
2023/03/02 02:05:59;;;;;;;41.65;30.75;;;;;;;4.21;51.17;99594.81;5105920;28;20036;-74
2023/03/02 02:08:27;;;;;;;43.97;32.08;;;;;;;4.43;50.93;99637.97;5108644;28;20047;-74
2023/03/02 02:10:55;;;;;;;42.95;30.00;;;;;;;4.40;50.97;99640.69;5109833;28;20048;-74
2023/03/02 02:13:22;;;;;;;43.08;31.80;;;;;;;4.40;50.94;99638.91;5109714;28;20035;-74
2023/03/02 02:15:49;;;;;;;43.53;31.65;;;;;;;4.40;51.17;99638.06;5109342;28;20044;-74
2023/03/02 02:18:15;;;;;;;46.03;33.15;;;;;;;3.96;51.23;99556.06;5109580;28;20040;-74
2023/03/02 02:20:44;;;;;;;39.92;30.73;;;;;;;4.37;51.14;99625.88;5108334;28;20059;-75
2023/03/02 02:23:25;;;;;;;44.67;31.83;;;;;;;4.35;51.20;99624.19;5109147;28;20036;-75
2023/03/02 02:26:17;;;;;;;45.42;31.85;;;;;;;4.10;51.27;99580.19;5109286;28;20036;-75
2023/03/02 02:28:49;;;;;;;42.53;30.77;;;;;;;4.26;51.33;99621.81;5106098;28;20054;-75
2023/03/02 02:31:21;;;;;;;46.42;32.10;;;;;;;4.25;51.44;99622.69;5109298;28;20036;-75
2023/03/02 02:33:53;;;;;;;39.92;30.52;;;;;;;4.22;51.47;99610.53;5109948;28;20052;-75
2023/03/02 02:36:23;;;;;;;41.90;30.20;;;;;;;4.22;51.51;99625.41;5108601;28;20040;-75
2023/03/02 02:38:52;;;;;;;41.90;30.35;;;;;;;4.24;51.39;99608.72;5108542;28;20046;-75
2023/03/02 02:41:24;;;;;;;46.92;31.55;;;;;;;4.24;51.37;99613.09;5109693;28;20051;-75
2023/03/02 02:43:51;;;;;;;47.45;31.52;;;;;;;4.21;51.51;99614.03;5109345;28;20051;-75
2023/03/02 02:46:18;;;;;;;44.45;33.58;;;;;;;4.21;51.53;99621.06;5108817;28;20055;-75
2023/03/02 02:48:44;;;;;;;41.83;31.42;;;;;;;4.19;51.58;99618.44;5109034;28;20040;-75
2023/03/02 02:51:17;;;;;;;40.28;31.65;;;;;;;3.93;51.42;99573.63;5109137;28;20043;-75
2023/03/02 02:53:50;;;;;;;43.28;31.85;;;;;;;4.14;51.60;99617.69;5107515;28;20050;-75
2023/03/02 02:56:18;;;;;;;41.17;30.98;;;;;;;4.12;51.59;99617.72;5108907;28;20062;-75
2023/03/02 02:58:50;;;;;;;42.58;29.63;;;;;;;4.13;51.56;99626.47;5109028;28;20089;-75
2023/03/02 03:01:19;;;;;;;42.55;30.30;;;;;;;3.62;51.52;99539.44;5108588;28;20040;-75
2023/03/02 03:03:51;;;;;;;45.60;30.50;;;;;;;4.11;51.67;99623.88;5107694;28;20094;-75
2023/03/02 03:06:19;;;;;;;42.15;30.73;;;;;;;4.09;51.72;99627.44;5108167;28;20048;-75
2023/03/02 03:09:00;;;;;;;38.58;29.33;;;;;;;4.07;52.10;99618.75;5108617;28;20093;-74
2023/03/02 03:11:29;;;;;;;41.60;30.92;;;;;;;4.03;51.73;99619.72;5108898;28;20050;-74
2023/03/02 03:14:19;;;;;;;47.42;31.20;;;;;;;3.99;51.91;99620.69;5108875;28;20066;-75
2023/03/02 03:16:49;;;;;;;40.50;30.48;;;;;;;3.04;52.00;99489.25;5091172;28;20104;-75
2023/03/02 03:19:20;;;;;;;44.53;30.20;;;;;;;3.92;51.93;99622.59;5107487;28;20110;-74
2023/03/02 03:21:49;;;;;;;43.67;30.83;;;;;;;3.91;51.77;99635.75;5108384;28;20173;-75
2023/03/02 03:24:17;;;;;;;45.15;31.73;;;;;;;3.87;52.00;99623.59;5108042;28;20036;-75
2023/03/02 03:26:44;;;;;;;41.83;31.30;;;;;;;3.86;52.19;99622.75;5107116;28;20040;-75
2023/03/02 03:29:14;;;;;;;39.05;29.45;;;;;;;3.84;52.13;99624.53;5108023;28;20040;-75
2023/03/02 03:31:41;;;;;;;46.90;32.65;;;;;;;3.84;52.19;99630.66;5106742;28;20430;-76
2023/03/02 03:34:11;;;;;;;52.03;31.52;;;;;;;3.41;52.32;99552.16;5107064;28;20123;-74
2023/03/02 03:36:38;;;;;;;45.92;31.88;;;;;;;3.18;52.29;99523.00;5107282;28;20257;-76
2023/03/02 03:39:06;;;;;;;47.53;29.35;;;;;;;3.78;52.21;99619.44;5106994;28;20307;-76
2023/03/02 03:41:33;;;;;;;45.75;30.23;;;;;;;3.75;52.27;99619.50;5108594;28;20042;-76
2023/03/02 03:44:00;;;;;;;48.30;32.88;;;;;;;3.00;52.30;99482.38;5107684;28;20036;-77
2023/03/02 03:46:28;;;;;;;46.28;31.95;;;;;;;3.75;52.46;99623.00;5108375;28;20052;-76
2023/03/02 03:48:58;;;;;;;40.22;29.42;;;;;;;2.62;52.41;99432.63;5107676;28;20176;-76
2023/03/02 03:51:28;;;;;;;43.20;30.27;;;;;;;3.73;52.41;99610.81;5108280;28;20046;-76
2023/03/02 03:54:01;;;;;;;41.83;29.83;;;;;;;3.12;52.43;99520.53;5107450;28;20101;-76
2023/03/02 03:56:29;;;;;;;44.42;31.38;;;;;;;3.67;52.38;99613.59;5107733;28;20047;-75
2023/03/02 03:59:05;;;;;;;45.70;29.27;;;;;;;3.67;52.47;99613.59;5106637;28;20044;-75
2023/03/02 04:01:36;;;;;;;43.45;30.73;;;;;;;3.64;52.46;99621.50;5106903;28;20066;-75
2023/03/02 04:04:04;;;;;;;43.53;30.20;;;;;;;3.60;52.36;99631.22;5106820;28;20361;-75
2023/03/02 04:06:30;;;;;;;43.25;32.20;;;;;;;3.58;52.55;99605.94;5107595;28;20036;-74
2023/03/02 04:09:03;;;;;;;44.30;32.00;;;;;;;3.56;52.57;99605.09;5107507;28;20052;-74
2023/03/02 04:11:30;;;;;;;42.55;29.38;;;;;;;3.57;52.47;99604.22;5107312;28;20035;-76
2023/03/02 04:13:57;;;;;;;42.80;30.73;;;;;;;3.52;52.60;99594.69;5106145;28;20036;-75
2023/03/02 04:16:24;;;;;;;40.72;28.05;;;;;;;2.78;52.70;99474.13;5107578;28;20036;-75
2023/03/02 04:18:52;;;;;;;41.38;31.02;;;;;;;3.50;52.63;99601.72;5106353;28;20050;-75
2023/03/02 04:21:19;;;;;;;46.10;30.70;;;;;;;3.48;52.70;99603.53;5107561;28;20200;-75
2023/03/02 04:23:46;;;;;;;43.20;30.38;;;;;;;0.66;52.62;99118.78;5107627;28;20046;-75
2023/03/02 04:26:13;;;;;;;48.70;30.35;;;;;;;3.45;52.75;99605.34;5106284;28;20039;-75
2023/03/02 04:28:40;;;;;;;44.75;31.25;;;;;;;3.05;52.78;99526.78;5105876;28;20040;-75
2023/03/02 04:31:07;;;;;;;43.40;29.88;;;;;;;3.42;52.76;99598.41;5106792;28;20036;-75
2023/03/02 04:33:33;;;;;;;41.65;30.13;;;;;;;3.42;52.82;99592.31;5105672;28;20036;-75
2023/03/02 04:36:02;;;;;;;40.35;28.58;;;;;;;3.00;52.71;99529.50;5105713;28;20303;-75
2023/03/02 04:38:29;;;;;;;42.33;29.98;;;;;;;3.39;52.91;99597.63;5105642;28;20115;-75
2023/03/02 04:40:56;;;;;;;39.85;29.50;;;;;;;3.36;53.00;99606.41;5106903;28;20043;-75
2023/03/02 04:43:23;;;;;;;43.35;30.75;;;;;;;3.31;52.70;99624.00;5105329;28;20063;-75
2023/03/02 04:45:49;;;;;;;45.38;31.30;;;;;;;3.29;53.00;99602.19;5105134;28;20055;-75
2023/03/02 04:48:16;;;;;;;39.47;29.08;;;;;;;3.25;53.32;99611.03;5106523;28;20055;-75
2023/03/02 04:50:43;;;;;;;38.33;27.20;;;;;;;3.26;53.26;99607.50;5105434;28;20040;-75
2023/03/02 04:53:11;;;;;;;42.72;29.52;;;;;;;3.29;53.24;99609.19;5105361;28;20052;-75
2023/03/02 04:55:39;;;;;;;39.50;29.40;;;;;;;3.25;53.29;99613.66;5106412;28;20036;-75
2023/03/02 04:58:05;;;;;;;40.92;29.60;;;;;;;3.24;53.39;99608.44;5106139;28;20090;-75
2023/03/02 05:00:34;;;;;;;40.38;29.48;;;;;;;0.72;53.52;99178.66;5106072;28;20040;-75
2023/03/02 05:03:01;;;;;;;43.33;31.15;;;;;;;3.15;54.00;99599.88;5106125;28;20044;-75
2023/03/02 05:05:29;;;;;;;43.05;31.25;;;;;;;2.61;53.57;99528.59;5105944;28;20047;-75
2023/03/02 05:07:57;;;;;;;39.90;29.95;;;;;;;3.18;53.57;99601.56;5105411;28;20032;-75
2023/03/02 05:10:27;;;;;;;41.10;30.80;;;;;;;2.95;53.98;99561.91;5106527;28;20071;-75
2023/03/02 05:12:56;;;;;;;43.97;29.27;;;;;;;3.00;53.59;99599.34;5105723;28;20056;-75
2023/03/02 05:15:25;;;;;;;43.65;31.38;;;;;;;3.18;53.70;99609.44;5105968;28;20253;-75
2023/03/02 05:17:52;;;;;;;45.35;30.90;;;;;;;3.14;53.73;99606.00;5105898;28;20193;-75
2023/03/02 05:20:19;;;;;;;43.85;32.65;;;;;;;3.11;53.98;99603.47;5106054;28;20036;-75
2023/03/02 05:22:46;;;;;;;39.80;29.17;;;;;;;2.73;53.94;99535.31;5105574;28;20069;-75
2023/03/02 05:25:13;;;;;;;44.08;29.75;;;;;;;3.07;53.85;99601.78;5105707;28;20062;-75
2023/03/02 05:27:43;;;;;;;45.95;30.55;;;;;;;3.05;54.20;99598.34;5105604;28;20040;-74
2023/03/02 05:30:11;;;;;;;42.15;29.80;;;;;;;3.07;53.93;99598.31;5105617;28;20040;-75
2023/03/02 05:32:38;;;;;;;43.25;28.95;;;;;;;3.08;54.18;99605.28;5105927;28;20086;-75
2023/03/02 05:35:06;;;;;;;41.72;30.92;;;;;;;3.06;54.05;99610.53;5104709;28;20032;-75
2023/03/02 05:37:33;;;;;;;39.33;29.45;;;;;;;3.03;54.33;99605.38;5105180;28;20177;-75
2023/03/02 05:39:59;;;;;;;48.95;33.45;;;;;;;3.01;54.39;99604.53;5105547;28;20192;-75
2023/03/02 05:42:26;;;;;;;45.92;31.58;;;;;;;2.55;54.15;99523.47;5107749;28;20042;-75
2023/03/02 05:44:54;;;;;;;47.92;32.05;;;;;;;3.02;54.47;99600.16;5109776;28;20042;-75
2023/03/02 05:47:25;;;;;;;49.17;34.95;;;;;;;2.99;54.52;99600.22;5108803;28;20047;-74
2023/03/02 05:49:52;;;;;;;45.22;31.08;;;;;;;2.98;54.55;99598.50;5109943;28;20082;-75
2023/03/02 05:52:19;;;;;;;44.80;31.90;;;;;;;2.96;54.62;99603.78;5110389;28;20032;-75
2023/03/02 05:54:46;;;;;;;45.63;32.22;;;;;;;2.96;54.86;99595.91;5109357;28;20044;-75
2023/03/02 05:57:13;;;;;;;47.83;32.97;;;;;;;2.90;54.81;99593.44;5109524;28;20047;-75
2023/03/02 05:59:40;;;;;;;46.17;32.10;;;;;;;2.95;54.82;99609.03;5109513;28;20238;-75
2023/03/02 06:02:08;;;;;;;46.35;34.72;;;;;;;2.95;54.93;99614.28;5109902;28;20052;-75
2023/03/02 06:04:41;;;;;;;46.30;31.63;;;;;;;2.94;54.88;99613.41;5108806;28;20036;-75
2023/03/02 06:07:09;;;;;;;45.40;32.40;;;;;;;2.93;55.01;99610.81;5109250;28;20039;-75
2023/03/02 06:09:37;;;;;;;48.10;31.52;;;;;;;2.93;55.04;99618.69;5109647;28;20040;-75
2023/03/02 06:12:04;;;;;;;42.63;30.25;;;;;;;2.92;55.26;99620.44;5109251;28;20199;-75
2023/03/02 06:14:31;;;;;;;44.35;31.27;;;;;;;2.50;55.09;99541.88;5109403;28;20040;-75
2023/03/02 06:16:57;;;;;;;43.15;30.63;;;;;;;2.96;55.13;99621.25;5109545;28;20043;-75
2023/03/02 06:19:26;;;;;;;41.67;31.48;;;;;;;2.94;55.31;99628.25;5109414;28;20050;-75
2023/03/02 06:21:53;;;;;;;45.33;31.30;;;;;;;2.94;55.02;99628.25;5109451;28;20050;-75
2023/03/02 06:24:19;;;;;;;47.25;31.52;;;;;;;2.94;54.71;99626.50;5108984;28;20081;-75
2023/03/02 06:26:46;;;;;;;44.45;31.17;;;;;;;2.96;54.49;99634.34;5109513;28;20040;-75
2023/03/02 06:29:13;;;;;;;38.63;30.40;;;;;;;-0.50;54.43;99046.06;5108917;28;20187;-75
2023/03/02 06:31:40;;;;;;;40.95;26.75;;;;;;;2.96;54.31;99631.72;5108808;28;20035;-75
2023/03/02 06:34:06;;;;;;;43.03;31.65;;;;;;;2.99;54.28;99627.28;5107945;28;20032;-75
2023/03/02 06:36:37;;;;;;;40.63;27.98;;;;;;;3.01;54.40;99632.47;5108217;28;20123;-75
2023/03/02 06:39:04;;;;;;;44.47;30.83;;;;;;;3.03;54.11;99631.56;5108746;28;20106;-75
2023/03/02 06:41:32;;;;;;;43.42;30.15;;;;;;;2.72;54.00;99578.97;5107673;28;20085;-75
2023/03/02 06:43:59;;;;;;;48.75;33.60;;;;;;;3.05;54.25;99629.78;5108514;28;20055;-75
2023/03/02 06:46:26;;;;;;;48.80;30.90;;;;;;;2.45;54.51;99537.63;5108474;28;20040;-75
2023/03/02 06:48:52;;;;;;;41.42;30.45;;;;;;;3.10;54.08;99627.91;5107694;28;20032;-75
2023/03/02 06:51:19;;;;;;;44.35;29.80;;;;;;;3.15;54.01;99627.81;5108547;28;20036;-74
2023/03/02 06:53:47;;;;;;;45.35;29.80;;;;;;;3.15;54.00;99639.16;5107126;28;20211;-75
2023/03/02 06:56:14;;;;;;;49.97;32.88;;;;;;;3.17;53.98;99636.50;5107343;28;20048;-75
2023/03/02 06:58:41;;;;;;;45.22;31.42;;;;;;;3.23;53.83;99644.25;5108125;28;20036;-75
2023/03/02 07:01:08;;;;;;;42.88;28.73;;;;;;;3.31;53.65;99639.72;5108091;28;20035;-75
2023/03/02 07:03:35;;;;;;;44.53;32.92;;;;;;;3.46;53.36;99631.50;5108218;28;20191;-75
2023/03/02 07:06:02;;;;;;;42.30;28.65;;;;;;;0.06;52.66;99035.59;5108310;28;20234;-74
2023/03/02 07:08:30;;;;;;;45.08;30.80;;;;;;;3.80;52.40;99646.47;5107280;28;20115;-75
2023/03/02 07:10:58;;;;;;;42.47;31.20;;;;;;;3.94;52.19;99638.28;5108324;28;20315;-74
2023/03/02 07:13:24;;;;;;;46.35;30.40;;;;;;;4.10;51.82;99645.75;5108063;28;20036;-75
2023/03/02 07:15:52;;;;;;;43.60;32.50;;;;;;;4.28;51.53;99646.22;5106877;28;20032;-75
2023/03/02 07:18:19;;;;;;;44.20;30.70;;;;;;;4.44;51.02;99648.44;5107571;28;20043;-73
2023/03/02 07:20:46;;;;;;;42.53;29.80;;;;;;;4.29;50.53;99582.38;5108030;28;20043;-74
2023/03/02 07:23:12;;;;;;;42.47;30.17;;;;;;;4.81;50.31;99648.31;5107958;28;20050;-74
2023/03/02 07:25:39;;;;;;;41.60;29.80;;;;;;;4.97;50.39;99640.91;5106542;28;20040;-74
2023/03/02 07:28:07;;;;;;;44.83;31.13;;;;;;;5.14;49.88;99635.19;5106670;28;20040;-75
2023/03/02 07:30:34;;;;;;;42.55;30.00;;;;;;;5.30;49.68;99633.84;5107778;28;20088;-75
2023/03/02 07:33:01;;;;;;;47.38;28.73;;;;;;;5.38;49.02;99633.63;5107533;28;20304;-74
2023/03/02 07:35:27;;;;;;;42.90;30.63;;;;;;;5.47;48.74;99637.72;5106552;28;20310;-75
2023/03/02 07:37:54;;;;;;;41.47;29.70;;;;;;;5.60;48.60;99633.81;5107729;28;20039;-75
2023/03/02 07:40:21;;;;;;;42.75;30.42;;;;;;;5.55;48.61;99606.81;5107618;28;20043;-75
2023/03/02 07:42:48;;;;;;;43.63;30.63;;;;;;;5.88;48.15;99637.31;5106777;28;20044;-74
2023/03/02 07:45:19;;;;;;;44.63;32.40;;;;;;;5.98;47.88;99643.16;5107401;28;20040;-75
2023/03/02 07:47:46;;;;;;;47.40;33.88;;;;;;;6.12;48.08;99627.78;5107037;28;20039;-75
2023/03/02 07:50:13;;;;;;;44.95;32.38;;;;;;;6.32;47.69;99635.03;5105814;28;20036;-75
2023/03/02 07:52:39;;;;;;;39.03;29.30;;;;;;;6.50;47.50;99637.03;5106673;28;20032;-75
2023/03/02 07:55:07;;;;;;;44.78;32.17;;;;;;;6.35;46.99;99591.03;5105962;28;20036;-75
2023/03/02 07:57:34;;;;;;;51.65;33.35;;;;;;;6.69;47.21;99624.94;5106813;28;20241;-75
2023/03/02 08:00:01;;;;;;;43.83;33.55;;;;;;;6.88;46.74;99632.22;5106594;28;20050;-75
2023/03/02 08:02:32;;;;;;;49.65;34.90;;;;;;;7.04;46.67;99623.72;5106823;28;20046;-75
2023/03/02 08:04:59;;;;;;;44.38;32.88;;;;;;;7.20;46.53;99624.00;5104834;28;20047;-75
2023/03/02 08:07:26;;;;;;;44.30;33.72;;;;;;;7.36;46.44;99625.19;5105617;28;20043;-75
2023/03/02 08:09:53;;;;;;;39.78;30.58;;;;;;;7.52;46.30;99624.59;5105499;28;20044;-75
2023/03/02 08:12:20;;;;;;;41.55;32.80;;;;;;;7.72;46.05;99627.34;5106353;28;20036;-75
2023/03/02 08:14:47;;;;;;;45.22;31.50;;;;;;;7.89;45.81;99621.38;5106562;28;20051;-75
2023/03/02 08:17:14;;;;;;;42.65;31.73;;;;;;;7.83;45.48;99574.13;5106477;28;20082;-75
2023/03/02 08:19:42;;;;;;;46.33;35.00;;;;;;;8.25;45.23;99614.59;5106367;28;20050;-75
2023/03/02 08:22:09;;;;;;;43.42;33.13;;;;;;;8.29;44.64;99607.41;5105489;28;20066;-75
2023/03/02 08:24:37;;;;;;;52.03;34.85;;;;;;;8.28;44.87;99608.34;5105570;28;20044;-75
2023/03/02 08:27:05;;;;;;;44.45;33.95;;;;;;;7.88;44.76;99540.50;5106591;28;20038;-76
2023/03/02 08:29:32;;;;;;;44.05;32.45;;;;;;;8.37;44.65;99575.41;5106703;28;20043;-75
2023/03/02 08:32:01;;;;;;;46.67;31.25;;;;;;;8.25;44.40;99521.34;5106378;28;20107;-75
2023/03/02 08:34:28;;;;;;;41.95;30.90;;;;;;;8.93;44.18;99594.06;5106114;28;20101;-75
2023/03/02 08:36:56;;;;;;;38.05;30.73;;;;;;;9.10;43.55;99595.94;5105895;28;20035;-75
2023/03/02 08:39:24;;;;;;;52.90;36.92;;;;;;;9.24;43.50;99596.22;5105328;28;20036;-76
2023/03/02 08:41:51;;;;;;;39.90;32.10;;;;;;;9.40;43.18;99586.69;5106173;28;20314;-75
2023/03/02 08:44:19;;;;;;;43.95;33.70;;;;;;;9.48;42.67;99588.97;5088227;28;20036;-75
2023/03/02 08:46:47;;;;;;;40.03;32.58;;;;;;;9.62;42.74;99587.38;5105061;28;20052;-75
2023/03/02 08:49:14;;;;;;;38.65;32.50;;;;;;;9.76;42.55;99588.50;5105049;28;20044;-75
2023/03/02 08:51:43;;;;;;;47.08;32.70;;;;;;;9.80;41.76;99588.28;5104787;28;20036;-75
2023/03/02 08:54:12;;;;;;;40.58;31.25;;;;;;;9.84;41.67;99581.91;5105700;28;20071;-75
2023/03/02 08:56:43;;;;;;;41.92;31.98;;;;;;;9.87;41.83;99583.56;5106158;28;20229;-76
2023/03/02 08:59:12;;;;;;;42.17;32.67;;;;;;;9.51;41.76;99498.88;5105889;28;20296;-77
2023/03/02 09:01:40;;;;;;;40.95;31.20;;;;;;;10.15;41.70;99591.00;5105837;28;20191;-76
2023/03/02 09:04:09;;;;;;;43.10;33.95;;;;;;;10.26;41.30;99578.06;5104711;28;20050;-76
2023/03/02 09:06:38;;;;;;;42.47;33.17;;;;;;;10.36;41.18;99584.63;5104532;28;20040;-76
2023/03/02 09:09:05;;;;;;;40.90;31.95;;;;;;;10.51;41.09;99575.91;5104669;28;20036;-76
2023/03/02 09:11:34;;;;;;;41.50;32.28;;;;;;;10.47;40.93;99544.34;5105480;28;20227;-77
2023/03/02 09:14:01;;;;;;;41.35;32.88;;;;;;;10.06;41.15;99459.06;5105314;28;20311;-77
2023/03/02 09:16:29;;;;;;;39.65;32.58;;;;;;;10.87;40.65;99569.66;5105154;28;20195;-77
2023/03/02 09:18:56;;;;;;;41.20;32.10;;;;;;;10.60;40.54;99525.06;5105145;28;20044;-76
2023/03/02 09:21:23;;;;;;;39.28;31.65;;;;;;;10.73;40.72;99572.13;5104224;28;20043;-75
2023/03/02 09:23:52;;;;;;;39.28;30.40;;;;;;;10.10;40.83;99481.78;5104086;28;20032;-75
2023/03/02 09:26:19;;;;;;;38.15;30.88;;;;;;;10.66;40.88;99568.94;5103874;28;20048;-76
2023/03/02 09:28:48;;;;;;;36.55;31.63;;;;;;;10.74;40.29;99565.91;5103680;28;20044;-76
2023/03/02 09:31:15;;;;;;;43.05;32.63;;;;;;;10.86;40.47;99559.97;5105098;28;20101;-76
2023/03/02 09:33:42;;;;;;;41.55;30.92;;;;;;;10.57;40.27;99493.41;5105209;28;20032;-76
2023/03/02 09:36:20;;;;;;;37.47;30.58;;;;;;;11.16;39.88;99562.78;5103577;28;20044;-76
2023/03/02 09:38:47;;;;;;;37.08;28.80;;;;;;;11.38;39.82;99559.81;5105190;28;20100;-76
2023/03/02 09:41:33;;;;;;;41.15;31.17;;;;;;;10.83;37.26;99447.00;5105512;28;20052;-76
2023/03/02 09:44:17;;;;;;;39.10;29.38;;;;;;;11.51;36.71;99539.63;5104083;28;20317;-76
2023/03/02 09:46:49;;;;;;;35.75;27.88;;;;;;;11.46;38.64;99528.41;5104969;28;20114;-76
2023/03/02 09:49:28;;;;;;;37.10;29.70;;;;;;;11.66;37.79;99559.97;5105152;28;20040;-75
2023/03/02 09:52:10;;;;;;;39.50;30.52;;;;;;;11.28;37.95;99511.69;5106406;28;20107;-76
2023/03/02 09:54:39;;;;;;;39.80;30.08;;;;;;;11.67;39.68;99580.28;5104769;28;20051;-76
2023/03/02 09:57:21;;;;;;;35.92;30.20;;;;;;;11.51;37.72;99494.50;5105036;28;20138;-76
2023/03/02 09:59:55;;;;;;;35.08;27.55;;;;;;;11.91;37.98;99545.31;5104684;28;20036;-76
2023/03/02 10:02:27;;;;;;;37.38;28.63;;;;;;;11.92;38.88;99562.97;5104445;28;20246;-76
2023/03/02 10:04:56;;;;;;;36.58;29.15;;;;;;;12.11;39.48;99537.06;5104033;28;20058;-76
2023/03/02 10:07:27;;;;;;;35.88;28.45;;;;;;;12.05;38.13;99510.88;5103511;28;20056;-76
2023/03/02 10:09:56;;;;;;;33.10;27.67;;;;;;;12.18;38.78;99541.13;5086854;28;20066;-77
2023/03/02 10:12:48;;;;;;;36.10;27.67;;;;;;;12.03;36.90;99504.78;5103786;28;20329;-75
2023/03/02 10:15:22;;;;;;;39.40;29.20;;;;;;;12.38;38.11;99535.47;5101792;28;20318;-75
2023/03/02 10:17:59;;;;;;;32.97;27.13;;;;;;;12.43;36.94;99530.75;5104376;28;20051;-76
2023/03/02 10:20:31;;;;;;;36.33;28.15;;;;;;;12.34;37.69;99528.63;5104034;28;20046;-76
2023/03/02 10:23:09;;;;;;;38.33;30.58;;;;;;;12.31;37.30;99531.47;5104152;28;20161;-76
2023/03/02 10:25:47;;;;;;;36.53;28.42;;;;;;;12.48;36.47;99525.16;5104128;28;20297;-76
2023/03/02 10:28:19;;;;;;;30.52;26.88;;;;;;;12.60;37.58;99516.44;5105918;28;20199;-76
2023/03/02 10:30:51;;;;;;;41.45;30.90;;;;;;;12.75;36.88;99530.59;5107833;28;20127;-76
2023/03/02 10:33:20;;;;;;;36.05;27.63;;;;;;;12.87;37.97;99527.19;5108427;28;20028;-76
2023/03/02 10:35:51;;;;;;;37.88;29.27;;;;;;;12.94;37.68;99525.00;5108023;28;20113;-77
2023/03/02 10:38:19;;;;;;;34.63;27.95;;;;;;;12.78;37.14;99487.84;5106602;28;20058;-76
2023/03/02 10:40:48;;;;;;;37.28;26.90;;;;;;;12.07;37.02;99363.72;5106835;28;20119;-76
2023/03/02 10:43:20;;;;;;;37.05;29.50;;;;;;;12.42;36.56;99409.41;5107136;28;20056;-76
2023/03/02 10:45:59;;;;;;;32.08;28.02;;;;;;;13.19;35.35;99521.66;5107330;28;20303;-77
2023/03/02 10:48:25;;;;;;;34.33;28.42;;;;;;;13.24;37.33;99511.56;5108397;28;20326;-76
2023/03/02 10:50:54;;;;;;;32.28;26.95;;;;;;;13.30;36.40;99514.69;5107238;28;20032;-76
2023/03/02 10:53:21;;;;;;;33.15;27.25;;;;;;;12.96;37.10;99460.09;5107348;28;20044;-76
2023/03/02 10:55:50;;;;;;;35.72;28.05;;;;;;;13.45;37.11;99505.75;5106365;28;20051;-76
2023/03/02 10:58:24;;;;;;;33.92;27.50;;;;;;;13.19;35.57;99440.00;5107916;28;20096;-76
2023/03/02 11:01:00;;;;;;;42.67;29.88;;;;;;;13.58;34.91;99500.50;5107071;28;20094;-76
2023/03/02 11:03:28;;;;;;;34.10;29.00;;;;;;;13.02;36.69;99377.25;5107487;28;20039;-76
2023/03/02 11:05:56;;;;;;;36.13;28.95;;;;;;;13.41;36.61;99439.47;5106825;28;20040;-76
2023/03/02 11:08:25;;;;;;;31.33;28.08;;;;;;;13.68;36.81;99484.75;5105872;28;20040;-76
2023/03/02 11:10:55;;;;;;;39.70;29.02;;;;;;;13.78;36.40;99483.19;5106541;28;20103;-76
2023/03/02 11:13:27;;;;;;;34.40;27.73;;;;;;;13.84;35.80;99492.59;5106504;28;20044;-76
2023/03/02 11:15:58;;;;;;;32.13;26.27;;;;;;;13.37;36.46;99414.84;5107798;28;20085;-76
2023/03/02 11:18:33;;;;;;;29.70;24.75;;;;;;;13.50;35.15;99457.53;5106897;28;20032;-76
2023/03/02 11:21:04;;;;;;;32.00;25.48;;;;;;;13.60;36.52;99485.28;5107219;28;20040;-77
2023/03/02 11:23:47;;;;;;;31.70;26.33;;;;;;;13.57;35.61;99480.13;5107305;28;20247;-77
2023/03/02 11:26:21;;;;;;;29.15;25.33;;;;;;;13.43;35.79;99450.91;5107376;28;20044;-77
2023/03/02 11:28:54;;;;;;;30.13;26.55;;;;;;;13.20;36.41;99379.66;5107311;28;20043;-77
2023/03/02 11:31:29;;;;;;;31.55;26.13;;;;;;;13.77;35.80;99481.50;5106107;28;20036;-77
2023/03/02 11:34:32;;;;;;;30.15;24.15;;;;;;;13.42;34.50;99419.91;5107186;28;20043;-76